sensor_id;sensor_type;location;lat;lon;timestamp;temperature;humidity
16283;DHT22;8249;48.708;9.030;2023-04-29T00:00:30;10.60;99.90
16283;DHT22;8249;48.708;9.030;2023-04-29T00:02:59;10.60;99.90
16283;DHT22;8249;48.708;9.030;2023-04-29T00:05:26;10.60;99.90
16283;DHT22;8249;48.708;9.030;2023-04-29T00:07:53;10.50;99.90
16283;DHT22;8249;48.708;9.030;2023-04-29T00:10:20;10.50;99.90
16283;DHT22;8249;48.708;9.030;2023-04-29T00:12:47;10.40;99.90
16283;DHT22;8249;48.708;9.030;2023-04-29T00:15:16;10.40;99.90
16283;DHT22;8249;48.708;9.030;2023-04-29T00:17:43;10.40;99.90
16283;DHT22;8249;48.708;9.030;2023-04-29T00:20:12;10.40;99.90
16283;DHT22;8249;48.708;9.030;2023-04-29T00:22:39;10.40;99.90
16283;DHT22;8249;48.708;9.030;2023-04-29T00:25:07;10.40;99.90
16283;DHT22;8249;48.708;9.030;2023-04-29T00:27:34;10.40;99.90
16283;DHT22;8249;48.708;9.030;2023-04-29T00:30:01;10.30;99.90
16283;DHT22;8249;48.708;9.030;2023-04-29T00:32:29;10.40;99.90
16283;DHT22;8249;48.708;9.030;2023-04-29T00:34:55;10.30;99.90
16283;DHT22;8249;48.708;9.030;2023-04-29T00:37:24;10.30;99.90
16283;DHT22;8249;48.708;9.030;2023-04-29T00:39:51;10.30;99.90
16283;DHT22;8249;48.708;9.030;2023-04-29T00:42:17;10.30;99.90
16283;DHT22;8249;48.708;9.030;2023-04-29T00:44:44;10.40;99.90
16283;DHT22;8249;48.708;9.030;2023-04-29T00:47:11;10.30;99.90
16283;DHT22;8249;48.708;9.030;2023-04-29T00:49:39;10.30;99.90
16283;DHT22;8249;48.708;9.030;2023-04-29T00:52:06;10.30;99.90
16283;DHT22;8249;48.708;9.030;2023-04-29T00:54:36;10.40;99.90
16283;DHT22;8249;48.708;9.030;2023-04-29T00:57:03;10.40;99.90
16283;DHT22;8249;48.708;9.030;2023-04-29T00:59:31;10.40;99.90
16283;DHT22;8249;48.708;9.030;2023-04-29T01:02:00;10.40;99.90
16283;DHT22;8249;48.708;9.030;2023-04-29T01:04:27;10.50;99.90
16283;DHT22;8249;48.708;9.030;2023-04-29T01:07:00;10.50;99.90
16283;DHT22;8249;48.708;9.030;2023-04-29T01:09:43;10.50;99.90
16283;DHT22;8249;48.708;9.030;2023-04-29T01:12:25;10.60;99.90
16283;DHT22;8249;48.708;9.030;2023-04-29T01:15:03;10.50;99.90
16283;DHT22;8249;48.708;9.030;2023-04-29T01:17:36;10.50;99.90
16283;DHT22;8249;48.708;9.030;2023-04-29T01:20:08;10.50;99.90
16283;DHT22;8249;48.708;9.030;2023-04-29T01:22:36;10.70;99.90
16283;DHT22;8249;48.708;9.030;2023-04-29T01:25:06;10.70;99.90
16283;DHT22;8249;48.708;9.030;2023-04-29T01:28:01;10.70;99.90
16283;DHT22;8249;48.708;9.030;2023-04-29T01:30:33;10.70;99.90
16283;DHT22;8249;48.708;9.030;2023-04-29T01:33:09;10.70;99.90
16283;DHT22;8249;48.708;9.030;2023-04-29T01:35:48;10.70;99.90
16283;DHT22;8249;48.708;9.030;2023-04-29T01:38:25;10.60;99.90
16283;DHT22;8249;48.708;9.030;2023-04-29T01:41:05;10.60;99.90
16283;DHT22;8249;48.708;9.030;2023-04-29T01:43:36;10.60;99.90
16283;DHT22;8249;48.708;9.030;2023-04-29T01:46:15;10.50;99.90
16283;DHT22;8249;48.708;9.030;2023-04-29T01:48:43;10.50;99.90
16283;DHT22;8249;48.708;9.030;2023-04-29T01:51:11;10.40;99.90
16283;DHT22;8249;48.708;9.030;2023-04-29T01:53:38;10.40;99.90
16283;DHT22;8249;48.708;9.030;2023-04-29T01:56:07;10.40;99.90
16283;DHT22;8249;48.708;9.030;2023-04-29T01:58:53;10.30;99.90
16283;DHT22;8249;48.708;9.030;2023-04-29T02:01:39;10.30;99.90
16283;DHT22;8249;48.708;9.030;2023-04-29T02:04:05;10.30;99.90
16283;DHT22;8249;48.708;9.030;2023-04-29T02:06:33;10.20;99.90
16283;DHT22;8249;48.708;9.030;2023-04-29T02:09:02;10.20;99.90
16283;DHT22;8249;48.708;9.030;2023-04-29T02:11:32;10.20;99.90
16283;DHT22;8249;48.708;9.030;2023-04-29T02:14:00;10.10;99.90
16283;DHT22;8249;48.708;9.030;2023-04-29T02:16:28;10.10;99.90
16283;DHT22;8249;48.708;9.030;2023-04-29T02:18:58;10.10;99.90
16283;DHT22;8249;48.708;9.030;2023-04-29T02:21:25;10.00;99.90
16283;DHT22;8249;48.708;9.030;2023-04-29T02:23:52;10.00;99.90
16283;DHT22;8249;48.708;9.030;2023-04-29T02:26:22;10.00;99.90
16283;DHT22;8249;48.708;9.030;2023-04-29T02:28:50;10.00;99.90
16283;DHT22;8249;48.708;9.030;2023-04-29T02:31:20;9.90;99.90
16283;DHT22;8249;48.708;9.030;2023-04-29T02:33:47;9.90;99.90
16283;DHT22;8249;48.708;9.030;2023-04-29T02:36:14;9.90;99.90
16283;DHT22;8249;48.708;9.030;2023-04-29T02:38:42;9.80;99.90
16283;DHT22;8249;48.708;9.030;2023-04-29T02:41:09;9.80;99.90
16283;DHT22;8249;48.708;9.030;2023-04-29T02:43:36;9.80;99.90
16283;DHT22;8249;48.708;9.030;2023-04-29T02:46:04;9.70;99.90
16283;DHT22;8249;48.708;9.030;2023-04-29T02:48:31;9.80;99.90
16283;DHT22;8249;48.708;9.030;2023-04-29T02:50:58;9.80;99.90
16283;DHT22;8249;48.708;9.030;2023-04-29T02:53:25;9.70;99.90
16283;DHT22;8249;48.708;9.030;2023-04-29T02:55:52;9.70;99.90
16283;DHT22;8249;48.708;9.030;2023-04-29T02:58:20;9.60;99.90
16283;DHT22;8249;48.708;9.030;2023-04-29T03:00:47;9.60;99.90
16283;DHT22;8249;48.708;9.030;2023-04-29T03:03:15;9.60;99.90
16283;DHT22;8249;48.708;9.030;2023-04-29T03:05:43;9.60;99.90
16283;DHT22;8249;48.708;9.030;2023-04-29T03:08:10;9.50;99.90
16283;DHT22;8249;48.708;9.030;2023-04-29T03:10:37;9.50;99.90
16283;DHT22;8249;48.708;9.030;2023-04-29T03:13:04;9.50;99.90
16283;DHT22;8249;48.708;9.030;2023-04-29T03:15:32;9.40;99.90
16283;DHT22;8249;48.708;9.030;2023-04-29T03:17:59;9.40;99.90
16283;DHT22;8249;48.708;9.030;2023-04-29T03:20:30;9.40;99.90
16283;DHT22;8249;48.708;9.030;2023-04-29T03:23:00;9.30;99.90
16283;DHT22;8249;48.708;9.030;2023-04-29T03:25:27;9.30;99.90
16283;DHT22;8249;48.708;9.030;2023-04-29T03:27:55;9.30;99.90
16283;DHT22;8249;48.708;9.030;2023-04-29T03:30:22;9.20;99.90
16283;DHT22;8249;48.708;9.030;2023-04-29T03:32:52;9.20;99.90
16283;DHT22;8249;48.708;9.030;2023-04-29T03:35:20;9.20;99.90
16283;DHT22;8249;48.708;9.030;2023-04-29T03:38:07;9.20;99.90
16283;DHT22;8249;48.708;9.030;2023-04-29T03:40:35;9.10;99.90
16283;DHT22;8249;48.708;9.030;2023-04-29T03:43:02;9.10;99.90
16283;DHT22;8249;48.708;9.030;2023-04-29T03:45:30;9.00;99.90
16283;DHT22;8249;48.708;9.030;2023-04-29T03:47:57;9.00;99.90
16283;DHT22;8249;48.708;9.030;2023-04-29T03:50:24;9.00;99.90
16283;DHT22;8249;48.708;9.030;2023-04-29T03:52:51;9.00;99.90
16283;DHT22;8249;48.708;9.030;2023-04-29T03:55:20;9.00;99.90
16283;DHT22;8249;48.708;9.030;2023-04-29T03:57:47;8.90;99.90
16283;DHT22;8249;48.708;9.030;2023-04-29T04:00:16;8.90;99.90
16283;DHT22;8249;48.708;9.030;2023-04-29T04:02:45;8.90;99.90
16283;DHT22;8249;48.708;9.030;2023-04-29T04:05:13;8.80;99.90
16283;DHT22;8249;48.708;9.030;2023-04-29T04:07:43;8.80;99.90
16283;DHT22;8249;48.708;9.030;2023-04-29T04:10:30;8.80;99.90
16283;DHT22;8249;48.708;9.030;2023-04-29T04:13:00;8.80;99.90
16283;DHT22;8249;48.708;9.030;2023-04-29T04:15:26;8.70;99.90
16283;DHT22;8249;48.708;9.030;2023-04-29T04:17:53;8.80;99.90
16283;DHT22;8249;48.708;9.030;2023-04-29T04:20:20;8.70;99.90
16283;DHT22;8249;48.708;9.030;2023-04-29T04:22:48;8.70;99.90
16283;DHT22;8249;48.708;9.030;2023-04-29T04:25:20;8.70;99.90
16283;DHT22;8249;48.708;9.030;2023-04-29T04:27:49;8.70;99.90
16283;DHT22;8249;48.708;9.030;2023-04-29T04:30:28;8.70;99.90
16283;DHT22;8249;48.708;9.030;2023-04-29T04:32:55;8.60;99.90
16283;DHT22;8249;48.708;9.030;2023-04-29T04:35:23;8.70;99.90
16283;DHT22;8249;48.708;9.030;2023-04-29T04:37:50;8.70;99.90
16283;DHT22;8249;48.708;9.030;2023-04-29T04:40:17;8.70;99.90
16283;DHT22;8249;48.708;9.030;2023-04-29T04:43:20;8.60;99.90
16283;DHT22;8249;48.708;9.030;2023-04-29T04:45:48;8.70;99.90
16283;DHT22;8249;48.708;9.030;2023-04-29T04:48:15;8.70;99.90
16283;DHT22;8249;48.708;9.030;2023-04-29T04:50:43;8.70;99.90
16283;DHT22;8249;48.708;9.030;2023-04-29T04:53:10;8.70;99.90
16283;DHT22;8249;48.708;9.030;2023-04-29T04:56:00;8.70;99.90
16283;DHT22;8249;48.708;9.030;2023-04-29T04:58:29;8.80;99.90
16283;DHT22;8249;48.708;9.030;2023-04-29T05:00:57;8.80;99.90
16283;DHT22;8249;48.708;9.030;2023-04-29T05:03:24;8.90;99.90
16283;DHT22;8249;48.708;9.030;2023-04-29T05:05:54;9.00;99.90
16283;DHT22;8249;48.708;9.030;2023-04-29T05:08:21;9.10;99.90
16283;DHT22;8249;48.708;9.030;2023-04-29T05:10:48;9.20;99.90
16283;DHT22;8249;48.708;9.030;2023-04-29T05:13:16;9.20;99.90
16283;DHT22;8249;48.708;9.030;2023-04-29T05:15:44;9.30;99.90
16283;DHT22;8249;48.708;9.030;2023-04-29T05:18:13;9.40;99.90
16283;DHT22;8249;48.708;9.030;2023-04-29T05:20:42;9.40;99.90
16283;DHT22;8249;48.708;9.030;2023-04-29T05:23:09;9.50;99.90
16283;DHT22;8249;48.708;9.030;2023-04-29T05:25:38;9.60;99.90
16283;DHT22;8249;48.708;9.030;2023-04-29T05:28:06;9.70;99.90
16283;DHT22;8249;48.708;9.030;2023-04-29T05:30:35;9.80;99.90
16283;DHT22;8249;48.708;9.030;2023-04-29T05:33:05;9.90;99.90
16283;DHT22;8249;48.708;9.030;2023-04-29T05:35:32;10.10;99.90
16283;DHT22;8249;48.708;9.030;2023-04-29T05:37:59;10.20;99.90
16283;DHT22;8249;48.708;9.030;2023-04-29T05:40:38;10.20;99.90
16283;DHT22;8249;48.708;9.030;2023-04-29T05:43:24;10.30;99.90
16283;DHT22;8249;48.708;9.030;2023-04-29T05:45:52;10.40;99.90
16283;DHT22;8249;48.708;9.030;2023-04-29T05:48:20;10.60;99.90
16283;DHT22;8249;48.708;9.030;2023-04-29T05:50:48;10.70;99.90
16283;DHT22;8249;48.708;9.030;2023-04-29T05:53:15;10.70;99.90
16283;DHT22;8249;48.708;9.030;2023-04-29T05:55:43;10.90;99.90
16283;DHT22;8249;48.708;9.030;2023-04-29T05:58:11;11.00;99.90
16283;DHT22;8249;48.708;9.030;2023-04-29T06:00:40;11.10;99.90
16283;DHT22;8249;48.708;9.030;2023-04-29T06:03:14;11.10;99.90
16283;DHT22;8249;48.708;9.030;2023-04-29T06:05:42;11.20;99.90
16283;DHT22;8249;48.708;9.030;2023-04-29T06:08:39;11.30;99.90
16283;DHT22;8249;48.708;9.030;2023-04-29T06:11:20;11.40;99.90
16283;DHT22;8249;48.708;9.030;2023-04-29T06:13:47;11.70;99.90
16283;DHT22;8249;48.708;9.030;2023-04-29T06:16:14;11.80;99.90
16283;DHT22;8249;48.708;9.030;2023-04-29T06:18:41;11.90;99.90
16283;DHT22;8249;48.708;9.030;2023-04-29T06:21:09;12.10;99.90
16283;DHT22;8249;48.708;9.030;2023-04-29T06:23:36;12.20;99.90
16283;DHT22;8249;48.708;9.030;2023-04-29T06:26:09;12.40;99.90
16283;DHT22;8249;48.708;9.030;2023-04-29T06:28:36;12.50;99.90
16283;DHT22;8249;48.708;9.030;2023-04-29T06:31:03;12.50;99.90
16283;DHT22;8249;48.708;9.030;2023-04-29T06:33:30;12.50;99.90
16283;DHT22;8249;48.708;9.030;2023-04-29T06:35:58;12.50;99.90
16283;DHT22;8249;48.708;9.030;2023-04-29T06:38:53;12.60;99.90
16283;DHT22;8249;48.708;9.030;2023-04-29T06:41:20;12.60;99.90
16283;DHT22;8249;48.708;9.030;2023-04-29T06:44:10;12.50;99.90
16283;DHT22;8249;48.708;9.030;2023-04-29T06:46:58;12.60;99.90
16283;DHT22;8249;48.708;9.030;2023-04-29T06:49:47;12.70;99.90
16283;DHT22;8249;48.708;9.030;2023-04-29T06:52:14;12.70;99.90
16283;DHT22;8249;48.708;9.030;2023-04-29T06:54:43;12.90;99.90
16283;DHT22;8249;48.708;9.030;2023-04-29T06:57:10;12.90;99.90
16283;DHT22;8249;48.708;9.030;2023-04-29T06:59:37;13.10;99.90
16283;DHT22;8249;48.708;9.030;2023-04-29T07:02:04;13.10;99.90
16283;DHT22;8249;48.708;9.030;2023-04-29T07:04:31;13.20;99.90
16283;DHT22;8249;48.708;9.030;2023-04-29T07:06:58;13.30;99.90
16283;DHT22;8249;48.708;9.030;2023-04-29T07:09:27;13.30;99.90
16283;DHT22;8249;48.708;9.030;2023-04-29T07:11:55;13.50;99.90
16283;DHT22;8249;48.708;9.030;2023-04-29T07:14:22;13.90;99.90
16283;DHT22;8249;48.708;9.030;2023-04-29T07:16:52;14.10;99.90
16283;DHT22;8249;48.708;9.030;2023-04-29T07:19:19;14.00;99.90
16283;DHT22;8249;48.708;9.030;2023-04-29T07:21:47;14.00;99.90
16283;DHT22;8249;48.708;9.030;2023-04-29T07:24:14;13.80;99.90
16283;DHT22;8249;48.708;9.030;2023-04-29T07:26:42;14.00;99.90
16283;DHT22;8249;48.708;9.030;2023-04-29T07:29:10;14.00;99.90
16283;DHT22;8249;48.708;9.030;2023-04-29T07:31:37;13.90;99.90
16283;DHT22;8249;48.708;9.030;2023-04-29T07:34:04;14.10;99.90
16283;DHT22;8249;48.708;9.030;2023-04-29T07:36:31;14.30;99.90
16283;DHT22;8249;48.708;9.030;2023-04-29T07:38:58;14.50;99.90
16283;DHT22;8249;48.708;9.030;2023-04-29T07:41:25;14.40;99.90
16283;DHT22;8249;48.708;9.030;2023-04-29T07:43:53;14.30;99.90
16283;DHT22;8249;48.708;9.030;2023-04-29T07:46:21;14.30;99.90
16283;DHT22;8249;48.708;9.030;2023-04-29T07:48:48;14.40;99.90
16283;DHT22;8249;48.708;9.030;2023-04-29T07:51:15;14.50;99.90
16283;DHT22;8249;48.708;9.030;2023-04-29T07:53:42;14.60;99.90
16283;DHT22;8249;48.708;9.030;2023-04-29T07:56:09;14.70;99.90
16283;DHT22;8249;48.708;9.030;2023-04-29T07:58:36;14.80;99.90
16283;DHT22;8249;48.708;9.030;2023-04-29T08:01:06;14.80;99.90
16283;DHT22;8249;48.708;9.030;2023-04-29T08:03:36;14.90;99.90
16283;DHT22;8249;48.708;9.030;2023-04-29T08:06:04;15.00;99.90
16283;DHT22;8249;48.708;9.030;2023-04-29T08:08:33;14.90;99.90
16283;DHT22;8249;48.708;9.030;2023-04-29T08:11:00;14.90;99.90
16283;DHT22;8249;48.708;9.030;2023-04-29T08:13:28;14.90;99.90
16283;DHT22;8249;48.708;9.030;2023-04-29T08:15:55;14.80;99.90
16283;DHT22;8249;48.708;9.030;2023-04-29T08:18:22;14.70;99.90
16283;DHT22;8249;48.708;9.030;2023-04-29T08:20:50;14.70;99.90
16283;DHT22;8249;48.708;9.030;2023-04-29T08:23:17;14.60;99.90
16283;DHT22;8249;48.708;9.030;2023-04-29T08:25:44;14.60;99.90
16283;DHT22;8249;48.708;9.030;2023-04-29T08:28:11;14.70;99.90
16283;DHT22;8249;48.708;9.030;2023-04-29T08:30:39;14.90;99.90
16283;DHT22;8249;48.708;9.030;2023-04-29T08:33:06;14.90;99.90
16283;DHT22;8249;48.708;9.030;2023-04-29T08:35:33;15.00;99.90
16283;DHT22;8249;48.708;9.030;2023-04-29T08:38:03;15.30;99.90
16283;DHT22;8249;48.708;9.030;2023-04-29T08:40:33;15.50;99.90
16283;DHT22;8249;48.708;9.030;2023-04-29T08:43:02;15.80;99.90
16283;DHT22;8249;48.708;9.030;2023-04-29T08:45:30;15.70;99.90
16283;DHT22;8249;48.708;9.030;2023-04-29T08:48:00;15.70;99.90
16283;DHT22;8249;48.708;9.030;2023-04-29T08:50:29;15.90;99.90
16283;DHT22;8249;48.708;9.030;2023-04-29T08:52:57;16.10;99.90
16283;DHT22;8249;48.708;9.030;2023-04-29T08:55:25;16.30;99.90
16283;DHT22;8249;48.708;9.030;2023-04-29T08:57:53;16.20;99.90
16283;DHT22;8249;48.708;9.030;2023-04-29T09:00:21;16.30;99.90
16283;DHT22;8249;48.708;9.030;2023-04-29T09:02:50;16.10;99.90
16283;DHT22;8249;48.708;9.030;2023-04-29T09:05:19;16.10;99.90
16283;DHT22;8249;48.708;9.030;2023-04-29T09:07:48;16.10;99.90
16283;DHT22;8249;48.708;9.030;2023-04-29T09:10:16;16.20;99.90
16283;DHT22;8249;48.708;9.030;2023-04-29T09:12:45;16.20;99.90
16283;DHT22;8249;48.708;9.030;2023-04-29T09:15:12;16.20;99.90
16283;DHT22;8249;48.708;9.030;2023-04-29T09:17:40;16.00;99.90
16283;DHT22;8249;48.708;9.030;2023-04-29T09:20:26;16.10;99.90
16283;DHT22;8249;48.708;9.030;2023-04-29T09:22:55;16.10;99.90
16283;DHT22;8249;48.708;9.030;2023-04-29T09:25:23;16.20;99.90
16283;DHT22;8249;48.708;9.030;2023-04-29T09:27:52;16.30;99.90
16283;DHT22;8249;48.708;9.030;2023-04-29T09:30:20;16.40;99.90
16283;DHT22;8249;48.708;9.030;2023-04-29T09:33:05;16.70;99.90
16283;DHT22;8249;48.708;9.030;2023-04-29T09:35:33;16.70;99.90
16283;DHT22;8249;48.708;9.030;2023-04-29T09:38:11;16.70;99.90
16283;DHT22;8249;48.708;9.030;2023-04-29T09:40:39;16.80;99.90
16283;DHT22;8249;48.708;9.030;2023-04-29T09:43:13;16.60;99.90
16283;DHT22;8249;48.708;9.030;2023-04-29T09:45:42;16.40;99.90
16283;DHT22;8249;48.708;9.030;2023-04-29T09:48:10;16.10;99.90
16283;DHT22;8249;48.708;9.030;2023-04-29T09:50:38;15.90;99.90
16283;DHT22;8249;48.708;9.030;2023-04-29T09:53:06;15.70;99.90
16283;DHT22;8249;48.708;9.030;2023-04-29T09:55:33;15.80;99.90
16283;DHT22;8249;48.708;9.030;2023-04-29T09:58:00;16.10;99.90
16283;DHT22;8249;48.708;9.030;2023-04-29T10:00:31;16.20;99.90
16283;DHT22;8249;48.708;9.030;2023-04-29T10:03:00;16.10;99.90
16283;DHT22;8249;48.708;9.030;2023-04-29T10:05:28;16.20;99.90
16283;DHT22;8249;48.708;9.030;2023-04-29T10:07:57;16.30;99.90
16283;DHT22;8249;48.708;9.030;2023-04-29T10:10:24;16.20;99.90
16283;DHT22;8249;48.708;9.030;2023-04-29T10:12:53;16.20;99.90
16283;DHT22;8249;48.708;9.030;2023-04-29T10:15:27;16.10;99.90
16283;DHT22;8249;48.708;9.030;2023-04-29T10:18:02;16.20;99.90
16283;DHT22;8249;48.708;9.030;2023-04-29T10:20:35;16.20;99.90
16283;DHT22;8249;48.708;9.030;2023-04-29T10:23:03;16.70;99.90
16283;DHT22;8249;48.708;9.030;2023-04-29T10:25:30;18.10;99.90
16283;DHT22;8249;48.708;9.030;2023-04-29T10:27:59;19.70;99.90
16283;DHT22;8249;48.708;9.030;2023-04-29T10:30:27;20.10;99.90
16283;DHT22;8249;48.708;9.030;2023-04-29T10:32:55;20.40;99.90
16283;DHT22;8249;48.708;9.030;2023-04-29T10:35:24;20.90;99.90
16283;DHT22;8249;48.708;9.030;2023-04-29T10:37:52;21.20;99.90
16283;DHT22;8249;48.708;9.030;2023-04-29T10:40:23;21.80;99.90
16283;DHT22;8249;48.708;9.030;2023-04-29T10:42:54;21.80;99.90
16283;DHT22;8249;48.708;9.030;2023-04-29T10:45:22;21.60;99.90
16283;DHT22;8249;48.708;9.030;2023-04-29T10:48:12;21.70;99.90
16283;DHT22;8249;48.708;9.030;2023-04-29T10:51:01;21.80;99.90
16283;DHT22;8249;48.708;9.030;2023-04-29T10:53:29;22.00;99.90
16283;DHT22;8249;48.708;9.030;2023-04-29T10:55:58;21.70;99.90
16283;DHT22;8249;48.708;9.030;2023-04-29T10:58:42;20.80;99.90
16283;DHT22;8249;48.708;9.030;2023-04-29T11:01:11;20.60;99.90
16283;DHT22;8249;48.708;9.030;2023-04-29T11:03:49;21.20;99.90
16283;DHT22;8249;48.708;9.030;2023-04-29T11:06:21;20.90;99.90
16283;DHT22;8249;48.708;9.030;2023-04-29T11:08:59;20.60;99.90
16283;DHT22;8249;48.708;9.030;2023-04-29T11:11:46;20.60;99.90
16283;DHT22;8249;48.708;9.030;2023-04-29T11:14:15;20.80;99.90
16283;DHT22;8249;48.708;9.030;2023-04-29T11:16:47;20.40;99.90
16283;DHT22;8249;48.708;9.030;2023-04-29T11:19:16;20.00;99.90
16283;DHT22;8249;48.708;9.030;2023-04-29T11:21:45;19.60;99.90
16283;DHT22;8249;48.708;9.030;2023-04-29T11:24:13;18.80;99.90
16283;DHT22;8249;48.708;9.030;2023-04-29T11:26:42;18.80;99.90
16283;DHT22;8249;48.708;9.030;2023-04-29T11:29:11;19.20;99.90
16283;DHT22;8249;48.708;9.030;2023-04-29T11:31:38;19.60;99.90
16283;DHT22;8249;48.708;9.030;2023-04-29T11:34:05;19.10;99.90
16283;DHT22;8249;48.708;9.030;2023-04-29T11:36:33;19.00;99.90
16283;DHT22;8249;48.708;9.030;2023-04-29T11:39:03;19.20;99.90
16283;DHT22;8249;48.708;9.030;2023-04-29T11:41:30;19.20;99.90
16283;DHT22;8249;48.708;9.030;2023-04-29T11:43:58;19.00;99.90
16283;DHT22;8249;48.708;9.030;2023-04-29T11:46:29;18.80;99.90
16283;DHT22;8249;48.708;9.030;2023-04-29T11:48:57;19.00;99.90
16283;DHT22;8249;48.708;9.030;2023-04-29T11:51:25;18.90;99.90
16283;DHT22;8249;48.708;9.030;2023-04-29T11:53:53;18.50;99.90
16283;DHT22;8249;48.708;9.030;2023-04-29T11:56:24;18.60;99.90
16283;DHT22;8249;48.708;9.030;2023-04-29T11:58:55;19.80;99.90
16283;DHT22;8249;48.708;9.030;2023-04-29T12:01:22;20.50;99.90
16283;DHT22;8249;48.708;9.030;2023-04-29T12:03:50;20.70;99.90
16283;DHT22;8249;48.708;9.030;2023-04-29T12:06:26;21.40;99.90
16283;DHT22;8249;48.708;9.030;2023-04-29T12:08:53;21.80;99.90
16283;DHT22;8249;48.708;9.030;2023-04-29T12:11:22;21.60;99.90
16283;DHT22;8249;48.708;9.030;2023-04-29T12:13:51;21.40;99.90
16283;DHT22;8249;48.708;9.030;2023-04-29T12:16:19;21.60;99.90
16283;DHT22;8249;48.708;9.030;2023-04-29T12:18:48;22.10;99.90
16283;DHT22;8249;48.708;9.030;2023-04-29T12:21:15;22.40;99.90
16283;DHT22;8249;48.708;9.030;2023-04-29T12:23:42;22.00;99.90
16283;DHT22;8249;48.708;9.030;2023-04-29T12:26:11;21.90;99.90
16283;DHT22;8249;48.708;9.030;2023-04-29T12:28:39;21.30;99.90
16283;DHT22;8249;48.708;9.030;2023-04-29T12:31:09;21.40;99.90
16283;DHT22;8249;48.708;9.030;2023-04-29T12:33:37;21.80;99.90
16283;DHT22;8249;48.708;9.030;2023-04-29T12:36:14;21.70;99.90
16283;DHT22;8249;48.708;9.030;2023-04-29T12:38:42;21.10;99.90
16283;DHT22;8249;48.708;9.030;2023-04-29T12:41:09;20.70;99.90
16283;DHT22;8249;48.708;9.030;2023-04-29T12:43:38;20.70;99.90
16283;DHT22;8249;48.708;9.030;2023-04-29T12:46:06;20.30;99.90
16283;DHT22;8249;48.708;9.030;2023-04-29T12:48:36;20.10;99.90
16283;DHT22;8249;48.708;9.030;2023-04-29T12:51:08;19.80;99.90
16283;DHT22;8249;48.708;9.030;2023-04-29T12:53:36;19.30;99.90
16283;DHT22;8249;48.708;9.030;2023-04-29T12:56:04;19.10;99.90
16283;DHT22;8249;48.708;9.030;2023-04-29T12:58:31;19.20;99.90
16283;DHT22;8249;48.708;9.030;2023-04-29T13:00:59;19.50;99.90
16283;DHT22;8249;48.708;9.030;2023-04-29T13:03:26;19.90;99.90
16283;DHT22;8249;48.708;9.030;2023-04-29T13:05:55;20.60;99.90
16283;DHT22;8249;48.708;9.030;2023-04-29T13:08:21;21.00;99.90
16283;DHT22;8249;48.708;9.030;2023-04-29T13:10:48;21.10;99.90
16283;DHT22;8249;48.708;9.030;2023-04-29T13:13:16;21.90;99.90
16283;DHT22;8249;48.708;9.030;2023-04-29T13:15:43;22.30;99.90
16283;DHT22;8249;48.708;9.030;2023-04-29T13:18:10;22.40;99.90
16283;DHT22;8249;48.708;9.030;2023-04-29T13:20:36;22.90;99.90
16283;DHT22;8249;48.708;9.030;2023-04-29T13:23:05;22.70;99.90
16283;DHT22;8249;48.708;9.030;2023-04-29T13:25:32;22.40;99.90
16283;DHT22;8249;48.708;9.030;2023-04-29T13:27:59;22.40;99.90
16283;DHT22;8249;48.708;9.030;2023-04-29T13:30:26;22.30;99.90
16283;DHT22;8249;48.708;9.030;2023-04-29T13:32:53;22.70;99.90
16283;DHT22;8249;48.708;9.030;2023-04-29T13:35:20;23.30;99.90
16283;DHT22;8249;48.708;9.030;2023-04-29T13:37:47;24.00;99.90
16283;DHT22;8249;48.708;9.030;2023-04-29T13:40:15;24.40;99.90
16283;DHT22;8249;48.708;9.030;2023-04-29T13:42:42;23.90;99.90
16283;DHT22;8249;48.708;9.030;2023-04-29T13:45:09;24.20;99.90
16283;DHT22;8249;48.708;9.030;2023-04-29T13:47:36;24.90;99.90
16283;DHT22;8249;48.708;9.030;2023-04-29T13:50:04;25.60;99.90
16283;DHT22;8249;48.708;9.030;2023-04-29T13:52:31;26.20;98.70
16283;DHT22;8249;48.708;9.030;2023-04-29T13:54:58;26.20;98.10
16283;DHT22;8249;48.708;9.030;2023-04-29T13:57:27;25.90;96.80
16283;DHT22;8249;48.708;9.030;2023-04-29T13:59:54;25.60;98.20
16283;DHT22;8249;48.708;9.030;2023-04-29T14:02:21;26.00;97.80
16283;DHT22;8249;48.708;9.030;2023-04-29T14:04:48;26.00;97.40
16283;DHT22;8249;48.708;9.030;2023-04-29T14:07:14;25.80;97.10
16283;DHT22;8249;48.708;9.030;2023-04-29T14:09:41;25.60;96.60
16283;DHT22;8249;48.708;9.030;2023-04-29T14:12:08;25.70;96.90
16283;DHT22;8249;48.708;9.030;2023-04-29T14:14:37;24.50;97.20
16283;DHT22;8249;48.708;9.030;2023-04-29T14:17:04;24.00;98.30
16283;DHT22;8249;48.708;9.030;2023-04-29T14:19:31;23.80;98.10
16283;DHT22;8249;48.708;9.030;2023-04-29T14:21:58;23.50;99.10
16283;DHT22;8249;48.708;9.030;2023-04-29T14:24:25;23.80;98.60
16283;DHT22;8249;48.708;9.030;2023-04-29T14:26:52;23.90;98.60
16283;DHT22;8249;48.708;9.030;2023-04-29T14:29:19;23.40;98.60
16283;DHT22;8249;48.708;9.030;2023-04-29T14:31:48;22.80;98.50
16283;DHT22;8249;48.708;9.030;2023-04-29T14:34:15;21.30;99.90
16283;DHT22;8249;48.708;9.030;2023-04-29T14:36:44;20.60;99.90
16283;DHT22;8249;48.708;9.030;2023-04-29T14:39:11;20.40;99.90
16283;DHT22;8249;48.708;9.030;2023-04-29T14:41:38;20.10;99.90
16283;DHT22;8249;48.708;9.030;2023-04-29T14:44:05;19.80;99.90
16283;DHT22;8249;48.708;9.030;2023-04-29T14:46:32;19.40;99.90
16283;DHT22;8249;48.708;9.030;2023-04-29T14:49:00;19.00;99.90
16283;DHT22;8249;48.708;9.030;2023-04-29T14:51:30;18.80;99.90
16283;DHT22;8249;48.708;9.030;2023-04-29T14:54:00;19.10;99.90
16283;DHT22;8249;48.708;9.030;2023-04-29T14:56:27;19.20;99.90
16283;DHT22;8249;48.708;9.030;2023-04-29T14:58:55;19.20;99.90
16283;DHT22;8249;48.708;9.030;2023-04-29T15:01:22;19.40;99.90
16283;DHT22;8249;48.708;9.030;2023-04-29T15:03:50;19.40;99.90
16283;DHT22;8249;48.708;9.030;2023-04-29T15:06:19;19.60;99.90
16283;DHT22;8249;48.708;9.030;2023-04-29T15:08:46;19.60;99.90
16283;DHT22;8249;48.708;9.030;2023-04-29T15:11:13;19.60;99.90
16283;DHT22;8249;48.708;9.030;2023-04-29T15:13:40;19.10;99.90
16283;DHT22;8249;48.708;9.030;2023-04-29T15:16:07;18.70;99.90
16283;DHT22;8249;48.708;9.030;2023-04-29T15:18:34;18.30;99.90
16283;DHT22;8249;48.708;9.030;2023-04-29T15:21:01;18.00;99.90
16283;DHT22;8249;48.708;9.030;2023-04-29T15:23:30;17.70;99.90
16283;DHT22;8249;48.708;9.030;2023-04-29T15:25:57;17.60;99.90
16283;DHT22;8249;48.708;9.030;2023-04-29T15:28:24;17.60;99.90
16283;DHT22;8249;48.708;9.030;2023-04-29T15:30:51;17.40;99.90
16283;DHT22;8249;48.708;9.030;2023-04-29T15:33:18;17.10;99.90
16283;DHT22;8249;48.708;9.030;2023-04-29T15:35:45;17.00;99.90
16283;DHT22;8249;48.708;9.030;2023-04-29T15:38:12;16.80;99.90
16283;DHT22;8249;48.708;9.030;2023-04-29T15:40:41;16.70;99.90
16283;DHT22;8249;48.708;9.030;2023-04-29T15:43:08;16.50;99.90
16283;DHT22;8249;48.708;9.030;2023-04-29T15:45:35;16.40;99.90
16283;DHT22;8249;48.708;9.030;2023-04-29T15:48:02;16.20;99.90
16283;DHT22;8249;48.708;9.030;2023-04-29T15:50:29;16.00;99.90
16283;DHT22;8249;48.708;9.030;2023-04-29T15:52:56;15.80;99.90
16283;DHT22;8249;48.708;9.030;2023-04-29T15:55:24;15.70;99.90
16283;DHT22;8249;48.708;9.030;2023-04-29T15:57:52;15.60;99.90
16283;DHT22;8249;48.708;9.030;2023-04-29T16:00:19;15.50;99.90
16283;DHT22;8249;48.708;9.030;2023-04-29T16:02:46;15.40;99.90